Flight Number: EUR1196 Duration: 3:00
Departure: Paris Charles-de-Gaulle (LFPG) at 03:00 Distance: 1138 Nm
Arrival: Athens Int'l (LGAV) at 06:00 Equipment: A330-200

Weather Information
Paris-Aeroport Charles De Gaulle, France (LFPG) 49-01N 002-32E 109M Oct 17, 2018 - 11:00 PM EDT / 2018.10.18 0300 UTC
Wind: from the NNE (020 degrees) at 12 MPH (10 KT) gusting to 25 MPH (22 KT) (direction variable):0
Visibility: 3 mile(s):0 Temperature: 51 F (11 C) Dew Point: 50 F (10 C) Relative Humidity: 93% Pressure (altimeter): 30.12 in. Hg (1020 hPa)
ob: LFPG 180300Z 02010G22KT 350V090 6000 NSC 11/10 Q1020 NOSIG cycle: 3
Sunrise: 06:19 Sunset: 16:50 (UTC)

Athens Eleftherios Venizelos International Airport, Greece (LGAV) 37-56N 023-56E Oct 17, 2018 - 11:20 PM EDT / 2018.10.18 0320 UTC
Wind: from the NNE (030 degrees) at 8 MPH (7 KT):0
Visibility: greater than 7 mile(s):0
Sky conditions: mostly clear Temperature: 62 F (17 C) Dew Point: 53 F (12 C) Relative Humidity: 72% Pressure (altimeter): 30.00 in. Hg (1016 hPa)
ob: LGAV 180320Z 03007KT 9999 FEW030 17/12 Q1016 NOSIG cycle: 3
Sunrise: 04:39 Sunset: 15:39 (UTC)

TAF:2018/10/17 18:12 TAF TAF LGAV 171700Z 1718/1818 04014KT 9999 FEW030 BECMG 1807/1809 SCT020

Previous Pireps for this route
Date Aircraft Flight time Fuel used Landing rate On time
2016-01-18A330-20003.16650000Yes
2018-04-27A330-20002.5655682-150No
(pireps marked green are flown by you)

Route map